createdAt,value
2023-03-06T00:02:45.836Z,8.85
2023-03-06T00:05:31.007Z,10.10
2023-03-06T00:08:16.589Z,8.65
2023-03-06T00:11:02.078Z,8.85
2023-03-06T00:13:47.665Z,10.70
2023-03-06T00:16:33.408Z,8.40
2023-03-06T00:19:18.790Z,8.25
2023-03-06T00:22:04.464Z,9.23
2023-03-06T00:24:53.875Z,8.18
2023-03-06T00:27:39.313Z,8.30
2023-03-06T00:30:25.330Z,8.80
2023-03-06T00:33:11.288Z,9.93
2023-03-06T00:35:56.780Z,9.07
2023-03-06T00:38:42.256Z,8.80
2023-03-06T00:41:27.712Z,9.07
2023-03-06T00:44:13.368Z,10.05
2023-03-06T00:46:59.228Z,8.93
2023-03-06T00:49:45.518Z,7.65
2023-03-06T00:52:31.269Z,9.48
2023-03-06T00:55:16.609Z,8.35
2023-03-06T00:58:02.127Z,9.40
2023-03-06T01:00:47.789Z,8.70
2023-03-06T01:03:33.259Z,8.50
2023-03-06T01:06:19.057Z,8.07
2023-03-06T01:09:04.887Z,8.00
2023-03-06T01:11:50.452Z,8.50
2023-03-06T01:14:36.221Z,8.43
2023-03-06T01:17:21.661Z,8.45
2023-03-06T01:20:07.826Z,8.40
2023-03-06T01:22:55.441Z,7.80
2023-03-06T01:25:41.126Z,7.28
2023-03-06T01:28:27.231Z,8.70
2023-03-06T01:31:14.650Z,8.00
2023-03-06T01:33:59.931Z,7.80
2023-03-06T01:36:45.536Z,7.97
2023-03-06T01:39:31.616Z,7.68
2023-03-06T01:42:17.155Z,7.70
2023-03-06T01:45:31.655Z,8.15
2023-03-06T01:48:20.059Z,7.97
2023-03-06T01:51:05.896Z,8.02
2023-03-06T01:53:53.378Z,8.88
2023-03-06T01:56:43.216Z,7.95
2023-03-06T01:59:29.508Z,8.15
2023-03-06T02:02:16.280Z,10.52
2023-03-06T02:05:04.003Z,9.60
2023-03-06T02:07:51.173Z,9.40
2023-03-06T02:10:36.955Z,9.95
2023-03-06T02:13:22.674Z,9.85
2023-03-06T02:16:12.121Z,9.90
2023-03-06T02:19:00.881Z,9.40
2023-03-06T02:21:46.456Z,9.43
2023-03-06T02:24:48.053Z,10.02
2023-03-06T02:27:33.988Z,9.93
2023-03-06T02:30:19.846Z,10.50
2023-03-06T02:33:06.392Z,10.30
2023-03-06T02:35:59.057Z,10.70
2023-03-06T02:38:50.036Z,9.32
2023-03-06T02:41:36.733Z,9.95
2023-03-06T02:44:24.199Z,12.48
2023-03-06T02:47:09.583Z,9.10
2023-03-06T02:49:55.295Z,9.63
2023-03-06T02:52:41.076Z,11.20
2023-03-06T02:55:26.749Z,10.25
2023-03-06T02:58:14.374Z,10.88
2023-03-06T03:00:59.732Z,10.63
2023-03-06T03:03:45.863Z,11.88
2023-03-06T03:06:33.061Z,10.75
2023-03-06T03:09:19.068Z,10.82
2023-03-06T03:12:07.029Z,11.45
2023-03-06T03:14:52.726Z,12.68
2023-03-06T03:17:39.342Z,11.52
2023-03-06T03:20:24.860Z,12.32
2023-03-06T03:23:10.277Z,11.35
2023-03-06T03:25:55.980Z,13.18
2023-03-06T03:28:41.948Z,13.80
2023-03-06T03:31:28.934Z,13.02
2023-03-06T03:34:14.710Z,12.75
2023-03-06T03:37:01.557Z,15.10
2023-03-06T03:39:47.254Z,14.35
2023-03-06T03:42:33.429Z,15.43
2023-03-06T03:45:19.547Z,14.45
2023-03-06T03:48:05.207Z,14.25
2023-03-06T03:50:51.162Z,14.50
2023-03-06T03:53:38.498Z,14.88
2023-03-06T03:56:25.632Z,14.80
2023-03-06T03:59:20.966Z,15.15
2023-03-06T04:02:21.826Z,15.98
2023-03-06T04:05:18.868Z,15.23
2023-03-06T04:08:05.536Z,16.25
2023-03-06T04:10:53.106Z,15.35
2023-03-06T04:13:38.859Z,16.88
2023-03-06T04:16:24.954Z,16.52
2023-03-06T04:19:11.673Z,16.42
2023-03-06T04:21:58.014Z,17.40
2023-03-06T04:24:43.697Z,16.95
2023-03-06T04:27:29.208Z,14.75
2023-03-06T04:30:14.607Z,16.73
2023-03-06T04:33:00.543Z,15.98
2023-03-06T04:35:46.075Z,15.77
2023-03-06T04:38:36.978Z,13.95
2023-03-06T04:41:24.553Z,14.73
2023-03-06T04:44:09.989Z,13.60
2023-03-06T04:46:55.485Z,13.85
2023-03-06T04:49:41.197Z,15.88
2023-03-06T04:52:26.712Z,15.88
2023-03-06T04:55:14.980Z,15.90
2023-03-06T04:58:00.453Z,17.58
2023-03-06T05:00:46.150Z,17.30
2023-03-06T05:03:32.273Z,16.67
2023-03-06T05:06:17.888Z,16.48
2023-03-06T05:09:03.539Z,16.40
2023-03-06T05:11:49.172Z,16.17
2023-03-06T05:14:34.578Z,17.08
2023-03-06T05:17:20.115Z,17.33
2023-03-06T05:20:07.867Z,16.05
2023-03-06T05:22:53.513Z,16.88
2023-03-06T05:25:40.509Z,16.67
2023-03-06T05:28:27.015Z,16.67
2023-03-06T05:31:12.539Z,16.70
2023-03-06T05:33:58.872Z,16.95
2023-03-06T05:36:44.584Z,17.85
2023-03-06T05:39:30.265Z,16.75
2023-03-06T05:42:15.504Z,17.30
2023-03-06T05:45:02.265Z,17.42
2023-03-06T05:47:48.165Z,14.18
2023-03-06T05:50:34.125Z,16.05
2023-03-06T05:53:21.231Z,15.95
2023-03-06T05:56:11.121Z,15.13
2023-03-06T05:58:56.904Z,16.75
2023-03-06T06:01:42.497Z,15.93
2023-03-06T06:04:29.337Z,16.10
2023-03-06T06:07:16.540Z,18.92
2023-03-06T06:10:03.823Z,17.13
2023-03-06T06:12:49.874Z,18.35
2023-03-06T06:15:35.545Z,16.75
2023-03-06T06:18:21.354Z,20.23
2023-03-06T06:21:09.014Z,17.40
2023-03-06T06:23:54.682Z,18.38
2023-03-06T06:26:41.130Z,18.17
2023-03-06T06:29:28.312Z,18.77
2023-03-06T06:32:13.836Z,17.20
2023-03-06T06:34:59.588Z,17.83
2023-03-06T06:37:45.255Z,18.33
2023-03-06T06:40:30.677Z,18.10
2023-03-06T06:43:16.323Z,19.33
2023-03-06T06:46:23.076Z,19.45
2023-03-06T06:49:07.947Z,16.75
2023-03-06T06:51:53.900Z,17.17
2023-03-06T06:54:39.467Z,17.10
2023-03-06T06:57:25.065Z,16.60
2023-03-06T07:00:14.243Z,16.98
2023-03-06T07:03:00.275Z,16.35
2023-03-06T07:05:45.713Z,17.20
2023-03-06T07:08:31.620Z,16.70
2023-03-06T07:11:18.821Z,18.60
2023-03-06T07:14:04.452Z,19.23
2023-03-06T07:16:50.521Z,19.25
2023-03-06T07:19:38.622Z,17.58
2023-03-06T07:22:24.467Z,19.42
2023-03-06T07:25:10.482Z,19.10
2023-03-06T07:27:56.292Z,17.77
2023-03-06T07:30:42.517Z,17.42
2023-03-06T07:33:28.168Z,18.67
2023-03-06T07:36:14.253Z,19.50
2023-03-06T07:38:59.908Z,17.80
2023-03-06T07:41:45.483Z,19.33
2023-03-06T07:44:31.850Z,18.38
2023-03-06T07:47:17.575Z,18.42
2023-03-06T07:50:05.412Z,21.63
2023-03-06T07:52:52.212Z,20.95
2023-03-06T07:55:40.394Z,20.80
2023-03-06T07:58:26.707Z,19.25
2023-03-06T08:01:17.973Z,18.70
2023-03-06T08:04:04.501Z,17.98
2023-03-06T08:06:50.467Z,17.70
2023-03-06T08:09:36.516Z,18.52
2023-03-06T08:12:22.701Z,19.55
2023-03-06T08:15:11.076Z,20.27
2023-03-06T08:17:56.636Z,19.52
2023-03-06T08:20:42.197Z,18.55
2023-03-06T08:23:27.777Z,17.98
2023-03-06T08:26:19.342Z,18.10
2023-03-06T08:29:04.985Z,18.13
2023-03-06T08:31:50.816Z,18.15
2023-03-06T08:34:36.698Z,18.27
2023-03-06T08:37:22.643Z,17.65
2023-03-06T08:40:09.287Z,17.92
2023-03-06T08:42:54.765Z,17.63
2023-03-06T08:45:40.443Z,17.17
2023-03-06T08:48:26.018Z,17.73
2023-03-06T08:51:11.736Z,18.20
2023-03-06T08:53:58.016Z,17.58
2023-03-06T08:56:43.802Z,18.83
2023-03-06T08:59:29.407Z,19.25
2023-03-06T09:02:15.305Z,18.55
2023-03-06T09:05:01.403Z,18.42
2023-03-06T09:07:47.060Z,17.33
2023-03-06T09:10:32.658Z,17.52
2023-03-06T09:13:18.303Z,16.88
2023-03-06T09:16:04.050Z,18.38
2023-03-06T09:18:52.756Z,17.77
2023-03-06T09:21:38.839Z,17.97
2023-03-06T09:24:25.020Z,16.85
2023-03-06T09:27:10.947Z,16.88
2023-03-06T09:29:57.346Z,16.42
2023-03-06T09:32:43.347Z,17.02
2023-03-06T09:35:28.763Z,17.73
2023-03-06T09:38:14.419Z,15.85
2023-03-06T09:41:11.781Z,16.17
2023-03-06T09:44:09.028Z,16.02
2023-03-06T09:47:16.960Z,15.93
2023-03-06T09:50:11.704Z,15.02
2023-03-06T09:53:15.676Z,14.70
2023-03-06T09:56:10.109Z,15.23
2023-03-06T09:59:02.563Z,14.93
2023-03-06T10:02:22.173Z,15.10
2023-03-06T10:05:15.326Z,14.95
2023-03-06T10:08:24.242Z,13.98
2023-03-06T10:11:12.173Z,13.55
2023-03-06T10:14:49.149Z,15.20
2023-03-06T10:17:38.597Z,14.18
2023-03-06T10:20:33.753Z,15.05
2023-03-06T10:23:42.777Z,13.82
2023-03-06T10:26:52.467Z,16.07
2023-03-06T10:30:09.133Z,13.68
2023-03-06T10:33:01.638Z,13.40
2023-03-06T10:35:53.378Z,13.10
2023-03-06T10:38:38.907Z,12.82
2023-03-06T10:41:35.202Z,12.05
2023-03-06T10:44:23.462Z,10.80
2023-03-06T10:47:36.891Z,11.05
2023-03-06T10:50:29.020Z,10.05
2023-03-06T10:53:25.126Z,9.40
2023-03-06T10:56:10.394Z,9.57
2023-03-06T10:59:31.318Z,10.65
2023-03-06T11:02:33.270Z,9.07
2023-03-06T11:05:20.638Z,8.75
2023-03-06T11:08:22.507Z,9.82
2023-03-06T11:11:09.637Z,10.40
2023-03-06T11:13:59.284Z,10.15
2023-03-06T11:16:53.663Z,9.70
2023-03-06T11:19:39.062Z,9.45
2023-03-06T11:22:24.725Z,9.05
2023-03-06T11:25:14.905Z,10.25
2023-03-06T11:28:24.894Z,8.90
2023-03-06T11:34:40.237Z,8.27
2023-03-06T11:37:26.005Z,8.48
2023-03-06T11:40:11.569Z,10.43
2023-03-06T11:43:17.391Z,9.10
2023-03-06T11:46:27.488Z,8.30
2023-03-06T11:49:24.135Z,8.18
2023-03-06T11:52:25.448Z,8.55
2023-03-06T11:55:16.426Z,7.90
2023-03-06T11:58:33.294Z,7.47
2023-03-06T12:01:31.080Z,7.43
2023-03-06T12:04:30.768Z,8.40
2023-03-06T12:08:03.326Z,8.27
2023-03-06T12:10:58.200Z,7.38
2023-03-06T12:13:46.721Z,8.60
2023-03-06T12:16:52.551Z,9.40
2023-03-06T12:19:46.883Z,9.38
2023-03-06T12:22:57.526Z,9.48
2023-03-06T12:26:09.296Z,10.43
2023-03-06T12:29:16.507Z,10.32
2023-03-06T12:32:25.939Z,11.10
2023-03-06T12:35:36.240Z,12.10
2023-03-06T12:41:27.504Z,12.48
2023-03-06T12:44:42.504Z,13.45
2023-03-06T12:47:31.426Z,13.02
2023-03-06T12:50:32.030Z,14.52
2023-03-06T12:53:29.661Z,12.77
2023-03-06T12:56:18.239Z,12.43
2023-03-06T12:59:03.940Z,12.85
2023-03-06T13:02:17.939Z,13.30
2023-03-06T13:05:24.774Z,11.45
2023-03-06T13:08:42.661Z,15.73
2023-03-06T13:11:36.224Z,11.05
2023-03-06T13:14:34.264Z,10.40
2023-03-06T13:17:24.399Z,11.27
2023-03-06T13:20:16.260Z,10.38
2023-03-06T13:23:33.241Z,10.82
2023-03-06T13:26:25.196Z,10.68
2023-03-06T13:29:38.727Z,9.93
2023-03-06T13:32:30.313Z,10.80
2023-03-06T13:35:32.212Z,11.85
2023-03-06T13:38:36.754Z,9.63
2023-03-06T13:41:22.654Z,9.98
2023-03-06T13:44:23.289Z,8.55
2023-03-06T13:47:32.911Z,9.65
2023-03-06T13:50:40.105Z,8.55
2023-03-06T13:53:50.591Z,8.88
2023-03-06T13:56:54.526Z,8.77
2023-03-06T14:00:11.715Z,8.23
2023-03-06T14:03:34.656Z,7.13
2023-03-06T14:06:35.587Z,7.80
2023-03-06T14:09:29.077Z,8.63
2023-03-06T14:12:20.156Z,7.82
2023-03-06T14:15:35.901Z,9.15
2023-03-06T14:18:41.749Z,8.13
2023-03-06T14:21:45.527Z,7.85
2023-03-06T14:24:41.066Z,7.28
2023-03-06T14:27:49.123Z,7.30
2023-03-06T14:30:34.612Z,7.15
2023-03-06T14:33:34.709Z,7.97
2023-03-06T14:36:23.478Z,11.07
2023-03-06T14:39:21.213Z,9.20
2023-03-06T14:42:18.184Z,9.07
2023-03-06T14:45:24.827Z,8.35
2023-03-06T14:48:15.341Z,10.48
2023-03-06T14:51:02.694Z,14.32
2023-03-06T14:53:50.482Z,9.45
2023-03-06T14:56:41.588Z,7.80
2023-03-06T14:59:30.552Z,7.38
2023-03-06T15:02:24.048Z,7.53
2023-03-06T15:05:30.597Z,8.32
2023-03-06T15:08:21.553Z,8.15
2023-03-06T15:11:07.905Z,8.43
2023-03-06T15:14:02.085Z,7.45
2023-03-06T15:16:47.921Z,8.38
2023-03-06T15:19:40.591Z,7.65
2023-03-06T15:22:41.994Z,6.50
2023-03-06T15:25:30.920Z,7.50
2023-03-06T15:28:30.688Z,8.40
2023-03-06T15:31:21.075Z,7.72
2023-03-06T15:34:09.588Z,7.60
2023-03-06T15:36:57.654Z,7.25
2023-03-06T15:39:43.782Z,7.22
2023-03-06T15:42:33.811Z,7.75
2023-03-06T15:45:22.084Z,7.30
2023-03-06T15:48:16.948Z,7.63
2023-03-06T15:51:03.362Z,7.28
2023-03-06T15:53:49.367Z,9.00
2023-03-06T15:56:40.103Z,8.57
2023-03-06T16:02:19.125Z,9.70
2023-03-06T16:05:15.142Z,8.38
2023-03-06T16:08:00.735Z,9.25
2023-03-06T16:10:47.009Z,8.35
2023-03-06T16:13:33.918Z,6.47
2023-03-06T16:16:24.419Z,7.18
2023-03-06T16:19:25.289Z,8.93
2023-03-06T16:22:11.980Z,9.00
2023-03-06T16:24:57.482Z,6.97
2023-03-06T16:27:55.563Z,7.38
2023-03-06T16:30:43.257Z,7.00
2023-03-06T16:33:28.925Z,8.25
2023-03-06T16:36:23.241Z,7.18
2023-03-06T16:39:17.191Z,8.85
2023-03-06T16:42:02.584Z,11.55
2023-03-06T16:44:48.214Z,8.50
2023-03-06T16:47:33.642Z,10.02
2023-03-06T16:50:31.209Z,10.40
2023-03-06T16:53:17.573Z,8.45
2023-03-06T16:56:03.076Z,7.78
2023-03-06T16:58:49.190Z,7.85
2023-03-06T17:01:34.989Z,6.68
2023-03-06T17:04:21.006Z,7.75
2023-03-06T17:07:06.738Z,11.98
2023-03-06T17:09:52.265Z,19.10
2023-03-06T17:12:38.388Z,10.48
2023-03-06T17:15:24.263Z,16.48
2023-03-06T17:18:09.817Z,15.32
2023-03-06T17:20:55.924Z,20.67
2023-03-06T17:23:42.492Z,14.93
2023-03-06T17:26:28.328Z,13.98
2023-03-06T17:29:14.348Z,16.35
2023-03-06T17:32:00.161Z,18.63
2023-03-06T17:34:45.965Z,18.65
2023-03-06T17:37:32.185Z,18.05
2023-03-06T17:40:18.158Z,15.20
2023-03-06T17:43:04.326Z,15.10
2023-03-06T17:45:49.918Z,13.38
2023-03-06T17:48:36.548Z,14.90
2023-03-06T17:51:22.549Z,17.33
2023-03-06T17:54:08.130Z,15.77
2023-03-06T17:56:53.918Z,14.88
2023-03-06T17:59:39.374Z,15.27
2023-03-06T18:02:25.086Z,12.70
2023-03-06T18:05:11.573Z,12.02
2023-03-06T18:07:57.190Z,11.52
2023-03-06T18:10:43.525Z,12.20
2023-03-06T18:13:29.371Z,11.35
2023-03-06T18:16:18.574Z,11.40
2023-03-06T18:19:04.432Z,12.03
2023-03-06T18:21:49.787Z,15.35
2023-03-06T18:24:36.807Z,13.70
2023-03-06T18:27:22.750Z,14.77
2023-03-06T18:30:09.432Z,11.93
2023-03-06T18:32:55.396Z,12.43
2023-03-06T18:35:43.975Z,12.30
2023-03-06T18:38:29.472Z,11.90
2023-03-06T18:41:16.446Z,9.73
2023-03-06T18:44:02.338Z,9.05
2023-03-06T18:46:48.132Z,8.30
2023-03-06T18:49:33.902Z,9.25
2023-03-06T18:52:19.625Z,8.57
2023-03-06T18:55:05.492Z,9.70
2023-03-06T18:57:51.091Z,9.93
2023-03-06T19:00:36.742Z,11.07
2023-03-06T19:03:22.221Z,12.48
2023-03-06T19:06:13.388Z,13.35
2023-03-06T19:08:59.042Z,10.98
2023-03-06T19:11:46.801Z,11.25
2023-03-06T19:14:32.803Z,9.38
2023-03-06T19:17:18.553Z,9.68
2023-03-06T19:20:04.868Z,8.75
2023-03-06T19:22:50.977Z,9.20
2023-03-06T19:25:37.071Z,8.57
2023-03-06T19:28:22.556Z,8.50
2023-03-06T19:31:25.176Z,10.95
2023-03-06T19:34:11.115Z,11.07
2023-03-06T19:36:56.684Z,10.10
2023-03-06T19:39:43.445Z,9.60
2023-03-06T19:42:29.999Z,10.43
2023-03-06T19:45:15.924Z,11.65
2023-03-06T19:48:01.692Z,10.95
2023-03-06T19:50:47.656Z,9.75
2023-03-06T19:53:35.204Z,10.38
2023-03-06T19:56:23.792Z,11.68
2023-03-06T19:59:10.219Z,11.65
2023-03-06T20:01:55.909Z,10.45
2023-03-06T20:04:41.610Z,9.27
2023-03-06T20:07:27.524Z,9.60
2023-03-06T20:10:13.284Z,13.15
2023-03-06T20:12:59.016Z,10.73
2023-03-06T20:15:44.871Z,12.00
2023-03-06T20:18:30.329Z,10.68
2023-03-06T20:21:16.732Z,10.70
2023-03-06T20:24:03.692Z,10.18
2023-03-06T20:26:51.082Z,10.18
2023-03-06T20:29:37.072Z,10.25
2023-03-06T20:32:22.899Z,10.95
2023-03-06T20:35:08.738Z,10.27
2023-03-06T20:37:54.524Z,11.73
2023-03-06T20:40:41.880Z,11.57
2023-03-06T20:43:27.330Z,10.20
2023-03-06T20:46:13.850Z,12.95
2023-03-06T20:49:00.166Z,10.05
2023-03-06T20:51:45.897Z,10.60
2023-03-06T20:54:31.625Z,10.70
2023-03-06T20:57:17.235Z,10.60
2023-03-06T21:00:03.747Z,10.98
2023-03-06T21:02:49.416Z,10.30
2023-03-06T21:05:34.952Z,11.52
2023-03-06T21:08:20.475Z,11.98
2023-03-06T21:11:06.026Z,11.07
2023-03-06T21:13:53.280Z,11.68
2023-03-06T21:16:39.204Z,11.60
2023-03-06T21:19:25.414Z,11.75
2023-03-06T21:22:11.098Z,12.20
2023-03-06T21:24:56.787Z,11.18
2023-03-06T21:27:42.316Z,11.50
2023-03-06T21:30:29.320Z,12.35
2023-03-06T21:33:16.114Z,11.35
2023-03-06T21:36:02.099Z,11.57
2023-03-06T21:38:49.956Z,12.68
2023-03-06T21:41:35.706Z,10.55
2023-03-06T21:44:21.264Z,11.70
2023-03-06T21:47:06.805Z,11.95
2023-03-06T21:49:52.175Z,11.32
2023-03-06T21:52:38.080Z,10.50
2023-03-06T21:55:23.850Z,12.40
2023-03-06T21:58:09.546Z,13.55
2023-03-06T22:00:55.107Z,14.35
2023-03-06T22:03:41.058Z,13.02
2023-03-06T22:06:28.646Z,12.18
2023-03-06T22:09:16.230Z,12.27
2023-03-06T22:12:03.695Z,12.98
2023-03-06T22:14:49.216Z,11.85
2023-03-06T22:17:35.003Z,11.18
2023-03-06T22:20:20.776Z,12.07
2023-03-06T22:23:06.552Z,10.95
2023-03-06T22:25:52.179Z,10.43
2023-03-06T22:28:37.963Z,11.10
2023-03-06T22:31:25.230Z,10.68
2023-03-06T22:34:11.217Z,11.30
2023-03-06T22:36:56.933Z,10.55
2023-03-06T22:39:42.441Z,11.27
2023-03-06T22:42:28.690Z,10.70
2023-03-06T22:45:14.545Z,11.15
2023-03-06T22:48:10.652Z,10.93
2023-03-06T22:51:11.929Z,11.05
2023-03-06T22:53:58.243Z,11.35
2023-03-06T22:56:44.015Z,11.30
2023-03-06T22:59:29.645Z,11.13
2023-03-06T23:02:15.296Z,9.90
2023-03-06T23:05:01.090Z,9.43
2023-03-06T23:07:47.692Z,10.35
2023-03-06T23:10:39.852Z,10.35
2023-03-06T23:13:44.037Z,10.50
2023-03-06T23:16:48.499Z,10.07
2023-03-06T23:19:53.486Z,10.90
2023-03-06T23:22:57.692Z,10.68
2023-03-06T23:26:01.778Z,11.25
2023-03-06T23:28:48.202Z,9.90
2023-03-06T23:31:33.922Z,11.52
2023-03-06T23:34:19.488Z,10.13
2023-03-06T23:37:04.990Z,9.93
2023-03-06T23:39:50.730Z,11.45
2023-03-06T23:42:36.206Z,11.68
2023-03-06T23:45:22.111Z,10.82
2023-03-06T23:48:08.042Z,10.98
2023-03-06T23:50:54.330Z,10.77
2023-03-06T23:53:40.487Z,10.38
2023-03-06T23:56:27.901Z,11.57
2023-03-06T23:59:13.745Z,10.90
